sensor_id;sensor_type;location;lat;lon;timestamp;P1;durP1;ratioP1;P2;durP2;ratioP2
43690;SDS011;29293;52.190;21.226;2023-04-28T00:13:18;31.60;;;15.80;;
43690;SDS011;29293;52.190;21.226;2023-04-28T00:28:25;28.40;;;14.60;;
43690;SDS011;29293;52.190;21.226;2023-04-28T00:43:31;29.20;;;15.90;;
43690;SDS011;29293;52.190;21.226;2023-04-28T01:13:55;31.20;;;14.70;;
43690;SDS011;29293;52.190;21.226;2023-04-28T01:29:02;31.20;;;15.80;;
43690;SDS011;29293;52.190;21.226;2023-04-28T01:44:09;36.50;;;17.30;;
43690;SDS011;29293;52.190;21.226;2023-04-28T01:59:16;38.20;;;17.50;;
43690;SDS011;29293;52.190;21.226;2023-04-28T02:14:23;31.70;;;16.60;;
43690;SDS011;29293;52.190;21.226;2023-04-28T02:29:30;35.90;;;17.80;;
43690;SDS011;29293;52.190;21.226;2023-04-28T02:44:37;36.20;;;18.00;;
43690;SDS011;29293;52.190;21.226;2023-04-28T02:59:44;34.60;;;18.80;;
43690;SDS011;29293;52.190;21.226;2023-04-28T03:14:51;35.20;;;18.40;;
43690;SDS011;29293;52.190;21.226;2023-04-28T03:29:59;39.30;;;19.00;;
43690;SDS011;29293;52.190;21.226;2023-04-28T03:45:06;34.40;;;19.20;;
43690;SDS011;29293;52.190;21.226;2023-04-28T04:00:14;44.80;;;21.20;;
43690;SDS011;29293;52.190;21.226;2023-04-28T04:15:21;36.90;;;19.00;;
43690;SDS011;29293;52.190;21.226;2023-04-28T04:30:28;40.80;;;21.30;;
43690;SDS011;29293;52.190;21.226;2023-04-28T04:45:35;48.70;;;25.40;;
43690;SDS011;29293;52.190;21.226;2023-04-28T05:00:42;35.70;;;20.70;;
43690;SDS011;29293;52.190;21.226;2023-04-28T05:15:49;54.00;;;29.40;;
43690;SDS011;29293;52.190;21.226;2023-04-28T05:30:56;44.70;;;25.60;;
43690;SDS011;29293;52.190;21.226;2023-04-28T05:46:03;47.90;;;26.50;;
43690;SDS011;29293;52.190;21.226;2023-04-28T06:01:09;37.10;;;21.60;;
43690;SDS011;29293;52.190;21.226;2023-04-28T06:16:16;35.40;;;18.40;;
43690;SDS011;29293;52.190;21.226;2023-04-28T06:32:31;30.10;;;15.20;;
43690;SDS011;29293;52.190;21.226;2023-04-28T06:47:37;22.70;;;12.70;;
43690;SDS011;29293;52.190;21.226;2023-04-28T07:02:44;18.70;;;9.20;;
43690;SDS011;29293;52.190;21.226;2023-04-28T07:17:51;12.90;;;6.50;;
43690;SDS011;29293;52.190;21.226;2023-04-28T07:32:58;9.80;;;5.90;;
43690;SDS011;29293;52.190;21.226;2023-04-28T07:48:05;10.00;;;3.80;;
43690;SDS011;29293;52.190;21.226;2023-04-28T08:03:12;7.70;;;3.10;;
43690;SDS011;29293;52.190;21.226;2023-04-28T08:18:19;7.70;;;2.50;;
43690;SDS011;29293;52.190;21.226;2023-04-28T08:33:26;8.00;;;2.80;;
43690;SDS011;29293;52.190;21.226;2023-04-28T08:48:35;11.60;;;3.70;;
43690;SDS011;29293;52.190;21.226;2023-04-28T09:03:46;8.10;;;3.80;;
43690;SDS011;29293;52.190;21.226;2023-04-28T09:18:56;8.30;;;3.80;;
43690;SDS011;29293;52.190;21.226;2023-04-28T09:34:03;8.70;;;3.30;;
43690;SDS011;29293;52.190;21.226;2023-04-28T09:49:12;8.80;;;3.00;;
43690;SDS011;29293;52.190;21.226;2023-04-28T10:04:19;6.00;;;3.00;;
43690;SDS011;29293;52.190;21.226;2023-04-28T10:19:26;8.20;;;3.10;;
43690;SDS011;29293;52.190;21.226;2023-04-28T10:34:33;6.80;;;3.20;;
43690;SDS011;29293;52.190;21.226;2023-04-28T11:05:10;6.60;;;3.20;;
43690;SDS011;29293;52.190;21.226;2023-04-28T11:20:21;7.10;;;3.00;;
43690;SDS011;29293;52.190;21.226;2023-04-28T11:35:40;6.80;;;2.70;;
43690;SDS011;29293;52.190;21.226;2023-04-28T11:50:47;6.70;;;2.70;;
43690;SDS011;29293;52.190;21.226;2023-04-28T12:05:53;9.20;;;2.90;;
43690;SDS011;29293;52.190;21.226;2023-04-28T12:21:00;6.10;;;2.60;;
43690;SDS011;29293;52.190;21.226;2023-04-28T12:36:08;6.30;;;2.80;;
43690;SDS011;29293;52.190;21.226;2023-04-28T12:51:15;7.60;;;3.10;;
43690;SDS011;29293;52.190;21.226;2023-04-28T13:06:22;5.40;;;3.00;;
43690;SDS011;29293;52.190;21.226;2023-04-28T13:21:31;8.90;;;3.60;;
43690;SDS011;29293;52.190;21.226;2023-04-28T13:36:37;7.10;;;3.70;;
43690;SDS011;29293;52.190;21.226;2023-04-28T13:51:44;6.50;;;3.80;;
43690;SDS011;29293;52.190;21.226;2023-04-28T14:06:51;9.90;;;4.10;;
43690;SDS011;29293;52.190;21.226;2023-04-28T14:21:58;7.40;;;4.50;;
43690;SDS011;29293;52.190;21.226;2023-04-28T14:37:05;7.70;;;4.30;;
43690;SDS011;29293;52.190;21.226;2023-04-28T14:52:12;7.20;;;4.50;;
43690;SDS011;29293;52.190;21.226;2023-04-28T15:07:19;7.80;;;4.40;;
43690;SDS011;29293;52.190;21.226;2023-04-28T15:22:26;6.90;;;4.50;;
43690;SDS011;29293;52.190;21.226;2023-04-28T15:37:41;9.50;;;4.70;;
43690;SDS011;29293;52.190;21.226;2023-04-28T15:52:50;11.20;;;5.20;;
43690;SDS011;29293;52.190;21.226;2023-04-28T16:07:57;9.40;;;3.70;;
43690;SDS011;29293;52.190;21.226;2023-04-28T16:23:04;5.40;;;3.90;;
43690;SDS011;29293;52.190;21.226;2023-04-28T16:38:12;6.60;;;4.10;;
43690;SDS011;29293;52.190;21.226;2023-04-28T16:53:19;10.60;;;3.90;;
43690;SDS011;29293;52.190;21.226;2023-04-28T17:08:29;10.90;;;4.10;;
43690;SDS011;29293;52.190;21.226;2023-04-28T17:23:36;9.10;;;3.80;;
43690;SDS011;29293;52.190;21.226;2023-04-28T17:38:43;7.50;;;4.10;;
43690;SDS011;29293;52.190;21.226;2023-04-28T17:53:51;11.60;;;4.20;;
43690;SDS011;29293;52.190;21.226;2023-04-28T18:08:59;9.60;;;4.70;;
43690;SDS011;29293;52.190;21.226;2023-04-28T18:24:06;10.40;;;4.90;;
43690;SDS011;29293;52.190;21.226;2023-04-28T18:39:13;17.20;;;5.80;;
43690;SDS011;29293;52.190;21.226;2023-04-28T18:54:21;17.30;;;7.00;;
43690;SDS011;29293;52.190;21.226;2023-04-28T19:09:29;15.60;;;8.00;;
43690;SDS011;29293;52.190;21.226;2023-04-28T19:24:36;20.70;;;10.20;;
43690;SDS011;29293;52.190;21.226;2023-04-28T19:39:43;23.80;;;10.90;;
43690;SDS011;29293;52.190;21.226;2023-04-28T19:54:50;23.40;;;11.90;;
43690;SDS011;29293;52.190;21.226;2023-04-28T20:09:57;22.70;;;12.00;;
43690;SDS011;29293;52.190;21.226;2023-04-28T20:25:04;26.10;;;12.20;;
43690;SDS011;29293;52.190;21.226;2023-04-28T20:40:13;20.00;;;11.70;;
43690;SDS011;29293;52.190;21.226;2023-04-28T20:55:20;22.20;;;12.00;;
43690;SDS011;29293;52.190;21.226;2023-04-28T21:10:27;19.50;;;11.40;;
43690;SDS011;29293;52.190;21.226;2023-04-28T21:25:34;23.50;;;11.90;;
43690;SDS011;29293;52.190;21.226;2023-04-28T21:40:41;28.30;;;12.50;;
43690;SDS011;29293;52.190;21.226;2023-04-28T21:55:48;21.30;;;12.30;;
43690;SDS011;29293;52.190;21.226;2023-04-28T22:10:55;21.20;;;12.30;;
43690;SDS011;29293;52.190;21.226;2023-04-28T22:26:02;26.80;;;13.40;;
43690;SDS011;29293;52.190;21.226;2023-04-28T22:41:09;25.80;;;13.80;;
43690;SDS011;29293;52.190;21.226;2023-04-28T22:56:16;25.40;;;13.80;;
43690;SDS011;29293;52.190;21.226;2023-04-28T23:11:23;23.40;;;13.20;;
43690;SDS011;29293;52.190;21.226;2023-04-28T23:26:30;27.80;;;14.00;;
43690;SDS011;29293;52.190;21.226;2023-04-28T23:41:37;24.80;;;14.40;;
43690;SDS011;29293;52.190;21.226;2023-04-28T23:56:43;26.90;;;13.50;;
